createdAt,value
2018-09-08T00:00:20.118Z,4.00
2018-09-08T00:01:20.098Z,4.00
2018-09-08T00:02:20.080Z,4.00
2018-09-08T00:03:20.062Z,4.00
2018-09-08T00:04:20.043Z,4.00
2018-09-08T00:05:20.022Z,4.00
2018-09-08T00:06:20.004Z,4.00
2018-09-08T00:07:19.984Z,4.00
2018-09-08T00:08:19.966Z,4.00
2018-09-08T00:09:19.951Z,4.00
2018-09-08T00:10:19.927Z,4.00
2018-09-08T00:11:19.908Z,4.00
2018-09-08T00:12:19.890Z,4.00
2018-09-08T00:13:19.869Z,4.00
2018-09-08T00:14:19.853Z,4.00
2018-09-08T00:15:19.832Z,4.00
2018-09-08T00:16:19.813Z,4.00
2018-09-08T00:17:19.795Z,4.00
2018-09-08T00:18:19.776Z,4.00
2018-09-08T00:19:19.760Z,4.00
2018-09-08T00:20:19.737Z,4.00
2018-09-08T00:21:19.967Z,4.00
2018-09-08T00:22:19.699Z,4.00
2018-09-08T00:23:19.680Z,4.00
2018-09-08T00:24:19.661Z,4.00
2018-09-08T00:25:19.642Z,4.00
2018-09-08T00:26:19.623Z,4.00
2018-09-08T00:27:19.605Z,4.00
2018-09-08T00:28:19.586Z,4.00
2018-09-08T00:29:19.567Z,4.00
2018-09-08T00:30:19.553Z,4.00
2018-09-08T00:31:19.529Z,4.00
2018-09-08T00:32:19.513Z,4.00
2018-09-08T00:33:19.490Z,4.00
2018-09-08T00:34:19.472Z,4.00
2018-09-08T00:35:19.453Z,4.00
2018-09-08T00:36:19.435Z,4.00
2018-09-08T00:37:19.415Z,4.00
2018-09-08T00:38:19.432Z,4.00
2018-09-08T00:39:19.382Z,4.00
2018-09-08T00:40:19.360Z,4.00
2018-09-08T00:41:19.339Z,4.00
2018-09-08T00:42:19.324Z,4.00
2018-09-08T00:43:19.306Z,4.00
2018-09-08T00:44:19.285Z,4.00
2018-09-08T00:45:19.266Z,4.00
2018-09-08T00:46:19.245Z,4.00
2018-09-08T00:47:19.226Z,4.00
2018-09-08T00:48:19.458Z,4.00
2018-09-08T00:49:19.189Z,4.00
2018-09-08T00:50:19.169Z,4.00
2018-09-08T00:51:19.156Z,4.00
2018-09-08T00:52:19.133Z,4.00
2018-09-08T00:53:19.112Z,4.00
2018-09-08T00:54:19.095Z,4.00
2018-09-08T00:55:19.074Z,4.00
2018-09-08T00:56:19.058Z,4.00
2018-09-08T00:57:19.035Z,4.00
2018-09-08T00:58:19.018Z,4.00
2018-09-08T00:59:18.999Z,4.00
2018-09-08T01:00:18.980Z,0.00
2018-09-08T01:01:18.963Z,4.00
2018-09-08T01:02:18.942Z,4.00
2018-09-08T01:03:18.922Z,4.00
2018-09-08T01:04:18.907Z,4.00
2018-09-08T01:05:18.884Z,4.00
2018-09-08T01:06:18.865Z,4.00
2018-09-08T01:07:18.846Z,4.00
2018-09-08T01:08:18.827Z,4.00
2018-09-08T01:09:18.806Z,4.00
2018-09-08T01:10:18.787Z,4.00
2018-09-08T01:11:18.770Z,4.00
2018-09-08T01:12:18.750Z,4.00
2018-09-08T01:13:18.729Z,4.00
2018-09-08T01:14:18.710Z,0.00
2018-09-08T01:15:19.446Z,4.00
2018-09-08T01:16:18.672Z,0.00
2018-09-08T01:17:18.652Z,4.00
2018-09-08T01:18:18.634Z,4.00
2018-09-08T01:19:18.614Z,4.00
2018-09-08T01:20:18.595Z,4.00
2018-09-08T01:21:18.575Z,4.00
2018-09-08T01:22:18.556Z,4.00
2018-09-08T01:23:18.536Z,4.00
2018-09-08T01:24:18.517Z,4.00
2018-09-08T01:25:18.498Z,4.00
2018-09-08T01:26:18.478Z,4.00
2018-09-08T01:27:18.459Z,4.00
2018-09-08T01:28:18.440Z,4.00
2018-09-08T01:29:18.420Z,4.00
2018-09-08T01:30:18.400Z,4.00
2018-09-08T01:31:18.382Z,4.00
2018-09-08T01:32:18.362Z,4.00
2018-09-08T01:33:18.342Z,4.00
2018-09-08T01:34:18.322Z,4.00
2018-09-08T01:35:18.303Z,0.00
2018-09-08T01:36:18.284Z,4.00
2018-09-08T01:37:18.264Z,4.00
2018-09-08T01:38:18.245Z,4.00
2018-09-08T01:39:18.228Z,4.00
2018-09-08T01:40:18.208Z,4.00
2018-09-08T01:41:18.187Z,0.00
2018-09-08T01:42:18.169Z,4.00
2018-09-08T01:43:18.148Z,4.00
2018-09-08T01:44:18.131Z,4.00
2018-09-08T01:45:18.109Z,4.00
2018-09-08T01:46:18.090Z,4.00
2018-09-08T01:47:18.071Z,4.00
2018-09-08T01:48:18.051Z,4.00
2018-09-08T01:49:18.031Z,4.00
2018-09-08T01:50:18.012Z,4.00
2018-09-08T01:51:17.993Z,4.00
2018-09-08T01:52:17.975Z,4.00
2018-09-08T01:53:17.954Z,4.00
2018-09-08T01:54:17.935Z,4.00
2018-09-08T01:55:17.917Z,4.00
2018-09-08T01:56:17.897Z,4.00
2018-09-08T01:57:17.881Z,4.00
2018-09-08T01:58:17.857Z,4.00
2018-09-08T01:59:17.841Z,4.00
2018-09-08T02:00:17.819Z,4.00
2018-09-08T02:01:17.800Z,4.00
2018-09-08T02:02:17.779Z,4.00
2018-09-08T02:03:17.760Z,4.00
2018-09-08T02:04:17.743Z,4.00
2018-09-08T02:05:17.727Z,4.00
2018-09-08T02:06:17.702Z,4.00
2018-09-08T02:07:17.683Z,4.00
2018-09-08T02:08:17.664Z,4.00
2018-09-08T02:09:17.644Z,4.00
2018-09-08T02:10:17.625Z,4.00
2018-09-08T02:11:17.606Z,4.00
2018-09-08T02:12:17.588Z,4.00
2018-09-08T02:13:17.567Z,4.00
2018-09-08T02:14:17.548Z,4.00
2018-09-08T02:15:17.530Z,4.00
2018-09-08T02:16:17.509Z,4.00
2018-09-08T02:17:17.489Z,4.00
2018-09-08T02:18:17.471Z,4.00
2018-09-08T02:19:17.453Z,4.00
2018-09-08T02:20:17.434Z,4.00
2018-09-08T02:21:17.413Z,4.00
2018-09-08T02:22:17.396Z,4.00
2018-09-08T02:23:17.377Z,4.00
2018-09-08T02:24:17.356Z,4.00
2018-09-08T02:25:17.345Z,4.00
2018-09-08T02:26:17.320Z,4.00
2018-09-08T02:27:17.298Z,4.00
2018-09-08T02:28:18.030Z,4.00
2018-09-08T02:29:17.258Z,4.00
2018-09-08T02:30:17.240Z,4.00
2018-09-08T02:31:17.221Z,4.00
2018-09-08T02:32:17.205Z,4.00
2018-09-08T02:33:17.181Z,4.00
2018-09-08T02:34:17.166Z,4.00
2018-09-08T02:35:17.145Z,4.00
2018-09-08T02:36:17.128Z,4.00
2018-09-08T02:37:17.111Z,4.00
2018-09-08T02:38:17.087Z,4.00
2018-09-08T02:39:17.068Z,4.00
2018-09-08T02:40:17.050Z,4.00
2018-09-08T02:41:17.029Z,4.00
2018-09-08T02:42:17.010Z,4.00
2018-09-08T02:43:16.990Z,4.00
2018-09-08T02:44:16.972Z,4.00
2018-09-08T02:45:16.953Z,4.00
2018-09-08T02:46:16.933Z,4.00
2018-09-08T02:47:16.917Z,4.00
2018-09-08T02:48:16.895Z,4.00
2018-09-08T02:49:16.875Z,4.00
2018-09-08T02:50:16.856Z,4.00
2018-09-08T02:51:16.838Z,4.00
2018-09-08T02:52:16.818Z,4.00
2018-09-08T02:53:16.797Z,4.00
2018-09-08T02:54:16.778Z,4.00
2018-09-08T02:55:19.012Z,4.00
2018-09-08T02:56:16.740Z,4.00
2018-09-08T02:57:16.720Z,4.00
2018-09-08T02:58:16.707Z,4.00
2018-09-08T02:59:16.682Z,4.00
2018-09-08T03:00:16.664Z,4.00
2018-09-08T03:01:21.148Z,4.00
2018-09-08T03:02:16.625Z,4.00
2018-09-08T03:03:16.604Z,4.00
2018-09-08T03:04:16.585Z,4.00
2018-09-08T03:05:16.567Z,4.00
2018-09-08T03:06:16.548Z,4.00
2018-09-08T03:07:16.528Z,4.00
2018-09-08T03:08:16.509Z,4.00
2018-09-08T03:09:16.488Z,4.00
2018-09-08T03:10:16.472Z,0.00
2018-09-08T03:11:16.451Z,4.00
2018-09-08T03:12:16.431Z,4.00
2018-09-08T03:13:16.411Z,4.00
2018-09-08T03:14:16.394Z,4.00
2018-09-08T03:15:16.402Z,4.00
2018-09-08T03:16:16.354Z,4.00
2018-09-08T03:17:16.333Z,4.00
2018-09-08T03:18:16.314Z,4.00
2018-09-08T03:19:16.296Z,4.00
2018-09-08T03:20:16.276Z,4.00
2018-09-08T03:21:16.258Z,4.00
2018-09-08T03:22:16.237Z,4.00
2018-09-08T03:23:16.217Z,4.00
2018-09-08T03:24:16.202Z,4.00
2018-09-08T03:25:16.178Z,4.00
2018-09-08T03:26:16.160Z,4.00
2018-09-08T03:27:16.141Z,4.00
2018-09-08T03:28:16.121Z,4.00
2018-09-08T03:29:16.101Z,4.00
2018-09-08T03:30:16.083Z,4.00
2018-09-08T03:31:16.063Z,4.00
2018-09-08T03:32:16.045Z,4.00
2018-09-08T03:33:16.023Z,4.00
2018-09-08T03:34:16.005Z,4.00
2018-09-08T03:35:15.985Z,4.00
2018-09-08T03:36:15.967Z,4.00
2018-09-08T03:37:15.947Z,4.00
2018-09-08T03:38:15.927Z,4.00
2018-09-08T03:39:15.908Z,4.00
2018-09-08T03:40:15.888Z,4.00
2018-09-08T03:41:15.868Z,4.00
2018-09-08T03:42:15.849Z,4.00
2018-09-08T03:43:15.829Z,4.00
2018-09-08T03:44:15.810Z,4.00
2018-09-08T03:45:15.790Z,4.00
2018-09-08T03:46:15.772Z,4.00
2018-09-08T03:47:15.752Z,4.00
2018-09-08T03:48:15.733Z,4.00
2018-09-08T03:49:15.711Z,4.00
2018-09-08T03:50:15.692Z,4.00
2018-09-08T03:51:15.674Z,4.00
2018-09-08T03:52:15.654Z,4.00
2018-09-08T03:53:15.633Z,4.00
2018-09-08T03:54:15.614Z,4.00
2018-09-08T03:55:15.595Z,4.00
2018-09-08T03:56:15.577Z,4.00
2018-09-08T03:57:15.556Z,4.00
2018-09-08T03:58:15.536Z,4.00
2018-09-08T03:59:15.516Z,4.00
2018-09-08T04:00:15.497Z,4.00
2018-09-08T04:01:15.478Z,4.00
2018-09-08T04:02:15.459Z,4.00
2018-09-08T04:03:15.440Z,4.00
2018-09-08T04:04:15.421Z,4.00
2018-09-08T04:05:15.400Z,4.00
2018-09-08T04:06:15.382Z,4.00
2018-09-08T04:07:15.361Z,4.00
2018-09-08T04:08:15.343Z,4.00
2018-09-08T04:09:15.325Z,4.00
2018-09-08T04:10:15.302Z,4.00
2018-09-08T04:11:15.302Z,0.00
2018-09-08T04:12:15.264Z,4.00
2018-09-08T04:13:15.243Z,0.00
2018-09-08T04:14:15.226Z,0.00
2018-09-08T04:15:15.206Z,0.00
2018-09-08T04:16:15.186Z,0.00
2018-09-08T04:17:15.166Z,0.00
2018-09-08T04:18:15.161Z,0.00
2018-09-08T04:19:15.127Z,0.00
2018-09-08T04:20:15.108Z,0.00
2018-09-08T04:21:15.088Z,0.00
2018-09-08T04:22:15.069Z,0.00
2018-09-08T04:23:15.049Z,4.00
2018-09-08T04:24:15.030Z,4.00
2018-09-08T04:25:15.009Z,4.00
2018-09-08T04:26:14.991Z,4.00
2018-09-08T04:27:14.971Z,4.00
2018-09-08T04:28:14.952Z,4.00
2018-09-08T04:29:14.931Z,4.00
2018-09-08T04:30:14.912Z,8.00
2018-09-08T04:31:14.892Z,4.00
2018-09-08T04:32:14.872Z,8.00
2018-09-08T04:33:14.852Z,8.00
2018-09-08T04:34:14.836Z,8.00
2018-09-08T04:35:14.812Z,8.00
2018-09-08T04:36:14.793Z,12.00
2018-09-08T04:37:14.773Z,12.00
2018-09-08T04:38:14.753Z,16.00
2018-09-08T04:39:14.733Z,20.00
2018-09-08T04:40:14.714Z,24.00
2018-09-08T04:41:14.693Z,24.00
2018-09-08T04:42:14.676Z,32.00
2018-09-08T04:43:14.653Z,36.00
2018-09-08T04:44:14.634Z,40.00
2018-09-08T04:45:14.615Z,48.00
2018-09-08T04:46:14.594Z,60.00
2018-09-08T04:47:14.574Z,68.00
2018-09-08T04:48:15.305Z,80.00
2018-09-08T04:49:14.651Z,92.00
2018-09-08T04:50:14.515Z,100.00
2018-09-08T04:51:14.496Z,112.00
2018-09-08T04:52:14.476Z,128.00
2018-09-08T04:53:14.454Z,144.00
2018-09-08T04:54:14.435Z,164.00
2018-09-08T04:55:14.415Z,180.00
2018-09-08T04:56:14.398Z,200.00
2018-09-08T04:57:14.377Z,216.00
2018-09-08T04:58:14.355Z,240.00
2018-09-08T04:59:14.334Z,264.00
2018-09-08T05:00:14.315Z,284.00
2018-09-08T05:01:14.294Z,308.00
2018-09-08T05:02:14.274Z,332.00
2018-09-08T05:03:14.258Z,356.00
2018-09-08T05:04:14.235Z,380.00
2018-09-08T05:05:14.213Z,404.00
2018-09-08T05:06:14.194Z,432.00
2018-09-08T05:07:14.175Z,460.00
2018-09-08T05:08:14.158Z,484.00
2018-09-08T05:09:14.138Z,508.00
2018-09-08T05:10:14.115Z,540.00
2018-09-08T05:11:14.101Z,568.00
2018-09-08T05:12:14.074Z,596.00
2018-09-08T05:13:14.054Z,624.00
2018-09-08T05:14:14.033Z,652.00
2018-09-08T05:15:14.016Z,676.00
2018-09-08T05:16:13.994Z,712.00
2018-09-08T05:17:14.031Z,748.00
2018-09-08T05:18:13.952Z,784.00
2018-09-08T05:19:13.933Z,812.00
2018-09-08T05:20:13.913Z,836.00
2018-09-08T05:21:13.891Z,860.00
2018-09-08T05:22:13.876Z,880.00
2018-09-08T05:23:13.852Z,900.00
2018-09-08T05:24:13.833Z,912.00
2018-09-08T05:25:13.812Z,924.00
2018-09-08T05:26:13.791Z,932.00
2018-09-08T05:27:13.772Z,952.00
2018-09-08T05:28:13.750Z,964.00
2018-09-08T05:29:13.729Z,984.00
2018-09-08T05:30:13.711Z,1004.00
2018-09-08T05:31:13.696Z,1024.00
2018-09-08T05:32:13.670Z,1048.00
2018-09-08T05:33:13.649Z,1064.00
2018-09-08T05:34:13.632Z,1084.00
2018-09-08T05:35:13.608Z,1108.00
2018-09-08T05:36:13.589Z,1128.00
2018-09-08T05:37:13.568Z,1148.00
2018-09-08T05:38:13.569Z,1180.00
2018-09-08T05:39:13.527Z,1204.00
2018-09-08T05:40:13.511Z,1236.00
2018-09-08T05:41:13.487Z,1272.00
2018-09-08T05:42:13.466Z,1300.00
2018-09-08T05:43:13.449Z,1320.00
2018-09-08T05:44:13.426Z,1352.00
2018-09-08T05:45:13.406Z,1380.00
2018-09-08T05:46:13.385Z,1404.00
2018-09-08T05:47:13.364Z,1432.00
2018-09-08T05:48:13.347Z,1460.00
2018-09-08T05:49:13.325Z,1484.00
2018-09-08T05:50:13.304Z,1512.00
2018-09-08T05:51:14.785Z,1524.00
2018-09-08T05:52:13.263Z,1536.00
2018-09-08T05:53:13.243Z,1556.00
2018-09-08T05:54:13.222Z,1604.00
2018-09-08T05:55:13.203Z,1644.00
2018-09-08T05:56:13.183Z,1668.00
2018-09-08T05:57:13.915Z,1696.00
2018-09-08T05:58:13.142Z,1720.00
2018-09-08T05:59:13.121Z,1752.00
2018-09-08T06:00:13.101Z,1788.00
2018-09-08T06:01:13.080Z,1824.00
2018-09-08T06:02:13.061Z,1848.00
2018-09-08T06:03:13.041Z,1876.00
2018-09-08T06:04:13.021Z,1896.00
2018-09-08T06:05:13.000Z,1912.00
2018-09-08T06:06:12.980Z,1932.00
2018-09-08T06:07:12.960Z,1960.00
2018-09-08T06:08:12.940Z,1988.00
2018-09-08T06:09:12.918Z,2012.00
2018-09-08T06:10:12.963Z,2040.00
2018-09-08T06:11:12.879Z,2072.00
2018-09-08T06:12:12.859Z,2092.00
2018-09-08T06:13:12.838Z,2120.00
2018-09-08T06:14:12.821Z,2144.00
2018-09-08T06:15:12.798Z,2168.00
2018-09-08T06:16:12.779Z,2192.00
2018-09-08T06:17:12.758Z,2208.00
2018-09-08T06:18:14.318Z,2228.00
2018-09-08T06:19:12.719Z,2240.00
2018-09-08T06:20:12.701Z,2268.00
2018-09-08T06:21:12.677Z,2284.00
2018-09-08T06:22:12.657Z,2300.00
2018-09-08T06:23:12.638Z,2316.00
2018-09-08T06:24:12.619Z,2336.00
2018-09-08T06:25:12.598Z,2352.00
2018-09-08T06:26:12.576Z,2364.00
2018-09-08T06:27:12.557Z,2392.00
2018-09-08T06:28:12.537Z,2404.00
2018-09-08T06:29:12.518Z,2420.00
2018-09-08T06:30:12.497Z,2440.00
2018-09-08T06:31:12.477Z,2456.00
2018-09-08T06:32:12.460Z,2468.00
2018-09-08T06:33:12.438Z,2504.00
2018-09-08T06:34:12.417Z,2492.00
2018-09-08T06:35:12.493Z,2508.00
2018-09-08T06:36:12.377Z,2524.00
2018-09-08T06:37:12.356Z,2536.00
2018-09-08T06:38:12.340Z,2556.00
2018-09-08T06:39:12.318Z,2568.00
2018-09-08T06:40:12.297Z,2572.00
2018-09-08T06:41:12.277Z,2608.00
2018-09-08T06:42:12.257Z,2612.00
2018-09-08T06:43:12.238Z,2620.00
2018-09-08T06:44:12.218Z,2620.00
2018-09-08T06:45:12.276Z,2644.00
2018-09-08T06:46:12.177Z,2660.00
2018-09-08T06:47:12.158Z,2704.00
2018-09-08T06:48:12.139Z,2672.00
2018-09-08T06:49:12.118Z,2688.00
2018-09-08T06:50:12.098Z,2720.00
2018-09-08T06:51:12.078Z,2720.00
2018-09-08T06:52:12.101Z,2732.00
2018-09-08T06:53:12.039Z,2744.00
2018-09-08T06:54:12.019Z,2764.00
2018-09-08T06:55:12.008Z,2764.00
2018-09-08T06:56:14.232Z,2872.00
2018-09-08T06:57:11.959Z,2772.00
2018-09-08T06:58:11.941Z,2796.00
2018-09-08T06:59:11.920Z,2820.00
2018-09-08T07:00:11.901Z,2804.00
2018-09-08T07:01:11.881Z,2812.00
2018-09-08T07:02:14.865Z,2828.00
2018-09-08T07:03:11.844Z,2848.00
2018-09-08T07:04:11.824Z,2848.00
2018-09-08T07:05:11.802Z,2868.00
2018-09-08T07:06:11.781Z,2876.00
2018-09-08T07:07:11.763Z,2888.00
2018-09-08T07:08:12.493Z,2896.00
2018-09-08T07:09:11.721Z,2896.00
2018-09-08T07:10:11.731Z,2916.00
2018-09-08T07:11:11.682Z,2916.00
2018-09-08T07:12:11.663Z,2920.00
2018-09-08T07:13:11.643Z,2968.00
2018-09-08T07:14:11.623Z,2956.00
2018-09-08T07:15:11.637Z,2948.00
2018-09-08T07:16:11.587Z,2948.00
2018-09-08T07:17:11.565Z,2972.00
2018-09-08T07:18:11.545Z,2956.00
2018-09-08T07:19:11.527Z,2964.00
2018-09-08T07:20:11.510Z,2968.00
2018-09-08T07:21:11.485Z,2980.00
2018-09-08T07:22:11.466Z,2980.00
2018-09-08T07:23:11.448Z,2980.00
2018-09-08T07:24:11.427Z,2984.00
2018-09-08T07:25:11.411Z,3000.00
2018-09-08T07:26:11.388Z,2996.00
2018-09-08T07:27:11.368Z,2992.00
2018-09-08T07:28:11.349Z,2996.00
2018-09-08T07:29:11.329Z,3000.00
2018-09-08T07:30:11.309Z,3016.00
2018-09-08T07:31:11.340Z,3048.00
2018-09-08T07:32:11.274Z,3032.00
2018-09-08T07:33:11.252Z,3040.00
2018-09-08T07:34:11.233Z,3044.00
2018-09-08T07:35:11.216Z,3044.00
2018-09-08T07:36:11.194Z,3060.00
2018-09-08T07:37:11.212Z,3072.00
2018-09-08T07:38:11.156Z,3056.00
2018-09-08T07:39:11.138Z,3056.00
2018-09-08T07:40:11.122Z,3056.00
2018-09-08T07:41:11.104Z,3064.00
2018-09-08T07:42:11.079Z,3060.00
2018-09-08T07:43:11.059Z,3076.00
2018-09-08T07:44:11.045Z,3084.00
2018-09-08T07:45:11.022Z,3088.00
2018-09-08T07:46:11.001Z,3112.00
2018-09-08T07:47:10.981Z,3096.00
2018-09-08T07:48:10.963Z,3100.00
2018-09-08T07:49:10.943Z,3104.00
2018-09-08T07:50:14.030Z,3112.00
2018-09-08T07:51:10.905Z,3120.00
2018-09-08T07:52:10.887Z,3140.00
2018-09-08T07:53:10.928Z,3104.00
2018-09-08T07:54:10.847Z,3116.00
2018-09-08T07:55:10.831Z,3112.00
2018-09-08T07:56:10.812Z,3120.00
2018-09-08T07:57:10.789Z,3144.00
2018-09-08T07:58:10.771Z,3148.00
2018-09-08T07:59:10.830Z,3136.00
2018-09-08T08:00:10.734Z,3140.00
2018-09-08T08:01:10.713Z,3140.00
2018-09-08T08:02:10.695Z,3140.00
2018-09-08T08:03:10.675Z,3160.00
2018-09-08T08:04:10.656Z,3152.00
2018-09-08T08:05:10.636Z,3156.00
2018-09-08T08:06:10.619Z,3164.00
2018-09-08T08:07:10.599Z,3164.00
2018-09-08T08:08:10.580Z,3164.00
2018-09-08T08:09:10.561Z,3164.00
2018-09-08T08:10:10.541Z,3168.00
2018-09-08T08:11:10.523Z,3180.00
2018-09-08T08:12:10.504Z,3188.00
2018-09-08T08:13:10.485Z,3184.00
2018-09-08T08:14:10.467Z,3172.00
2018-09-08T08:15:10.447Z,3176.00
2018-09-08T08:16:10.428Z,3200.00
2018-09-08T08:17:10.408Z,3200.00
2018-09-08T08:18:10.390Z,3200.00
2018-09-08T08:19:10.371Z,3196.00
2018-09-08T08:20:10.352Z,3200.00
2018-09-08T08:21:10.335Z,3208.00
2018-09-08T08:22:10.318Z,3208.00
2018-09-08T08:23:12.589Z,3240.00
2018-09-08T08:24:10.278Z,3216.00
2018-09-08T08:25:10.258Z,3232.00
2018-09-08T08:26:10.239Z,3248.00
2018-09-08T08:27:10.221Z,3236.00
2018-09-08T08:28:10.202Z,3268.00
2018-09-08T08:29:13.936Z,3248.00
2018-09-08T08:30:10.164Z,3252.00
2018-09-08T08:31:10.180Z,3260.00
2018-09-08T08:32:10.127Z,3252.00
2018-09-08T08:33:10.108Z,3260.00
2018-09-08T08:34:10.090Z,3284.00
2018-09-08T08:35:10.073Z,3256.00
2018-09-08T08:36:10.053Z,3280.00
2018-09-08T08:37:10.117Z,3276.00
2018-09-08T08:38:10.020Z,3284.00
2018-09-08T08:39:09.997Z,3272.00
2018-09-08T08:40:09.979Z,3280.00
2018-09-08T08:41:09.959Z,3260.00
2018-09-08T08:42:09.941Z,3216.00
2018-09-08T08:43:09.983Z,3072.00
2018-09-08T08:44:09.904Z,3144.00
2018-09-08T08:45:09.885Z,3204.00
2018-09-08T08:46:09.867Z,3260.00
2018-09-08T08:47:09.849Z,3268.00
2018-09-08T08:48:09.831Z,3280.00
2018-09-08T08:49:09.811Z,3276.00
2018-09-08T08:50:09.793Z,3272.00
2018-09-08T08:51:09.776Z,3272.00
2018-09-08T08:52:09.762Z,3280.00
2018-09-08T08:53:09.744Z,3284.00
2018-09-08T08:54:09.720Z,3280.00
2018-09-08T08:55:09.703Z,3288.00
2018-09-08T08:56:09.684Z,3292.00
2018-09-08T08:57:09.664Z,3260.00
2018-09-08T08:58:09.648Z,3272.00
2018-09-08T08:59:09.628Z,3268.00
2018-09-08T09:00:09.610Z,3256.00
2018-09-08T09:01:09.591Z,3288.00
2018-09-08T09:02:09.573Z,3296.00
2018-09-08T09:03:09.555Z,3296.00
2018-09-08T09:04:09.537Z,3288.00
2018-09-08T09:05:09.522Z,3300.00
2018-09-08T09:06:09.504Z,3308.00
2018-09-08T09:07:11.323Z,3288.00
2018-09-08T09:08:09.464Z,3300.00
2018-09-08T09:09:09.446Z,3284.00
2018-09-08T09:10:09.428Z,3328.00
2018-09-08T09:11:09.411Z,3292.00
2018-09-08T09:12:09.392Z,3340.00
2018-09-08T09:13:10.126Z,3388.00
2018-09-08T09:14:09.359Z,3392.00
2018-09-08T09:15:09.706Z,3384.00
2018-09-08T09:16:09.320Z,3356.00
2018-09-08T09:17:09.301Z,3340.00
2018-09-08T09:18:09.283Z,3344.00
2018-09-08T09:19:09.265Z,3340.00
2018-09-08T09:20:09.249Z,3340.00
2018-09-08T09:21:09.229Z,3336.00
2018-09-08T09:22:09.211Z,3324.00
2018-09-08T09:23:09.193Z,3324.00
2018-09-08T09:24:09.277Z,3332.00
2018-09-08T09:25:09.157Z,3336.00
2018-09-08T09:26:09.139Z,3352.00
2018-09-08T09:27:09.121Z,3356.00
2018-09-08T09:28:09.106Z,3328.00
2018-09-08T09:29:09.085Z,3348.00
2018-09-08T09:30:09.068Z,3360.00
2018-09-08T09:31:09.052Z,3360.00
2018-09-08T09:32:09.033Z,3384.00
2018-09-08T09:33:09.014Z,3456.00
2018-09-08T09:34:08.997Z,3392.00
2018-09-08T09:35:08.982Z,3332.00
2018-09-08T09:36:08.964Z,3312.00
2018-09-08T09:37:08.947Z,3292.00
2018-09-08T09:38:08.927Z,3300.00
2018-09-08T09:39:08.910Z,3312.00
2018-09-08T09:40:08.892Z,3332.00
2018-09-08T09:41:08.874Z,3324.00
2018-09-08T09:42:08.855Z,3316.00
2018-09-08T09:43:08.839Z,3300.00
2018-09-08T09:44:08.865Z,3336.00
2018-09-08T09:45:08.802Z,3308.00
2018-09-08T09:46:08.784Z,3336.00
2018-09-08T09:47:08.771Z,3424.00
2018-09-08T09:48:08.749Z,3308.00
2018-09-08T09:49:08.733Z,3236.00
2018-09-08T09:50:08.713Z,3304.00
2018-09-08T09:51:08.695Z,3300.00
2018-09-08T09:52:08.678Z,3340.00
2018-09-08T09:53:08.748Z,3348.00
2018-09-08T09:54:08.642Z,3340.00
2018-09-08T09:55:08.626Z,3352.00
2018-09-08T09:56:08.608Z,3360.00
2018-09-08T09:57:08.590Z,3508.00
2018-09-08T09:58:08.572Z,3620.00
2018-09-08T09:59:08.556Z,3640.00
2018-09-08T10:00:08.537Z,3624.00
2018-09-08T10:01:08.585Z,3600.00
2018-09-08T10:02:08.506Z,3580.00
2018-09-08T10:03:08.485Z,3408.00
2018-09-08T10:04:08.471Z,3376.00
2018-09-08T10:05:08.453Z,3364.00
2018-09-08T10:06:08.432Z,3360.00
2018-09-08T10:07:08.416Z,3348.00
2018-09-08T10:08:08.399Z,3376.00
2018-09-08T10:09:08.380Z,3420.00
2018-09-08T10:10:08.365Z,3416.00
2018-09-08T10:11:08.345Z,3412.00
2018-09-08T10:12:08.383Z,3456.00
2018-09-08T10:13:08.313Z,3596.00
2018-09-08T10:14:08.293Z,3604.00
2018-09-08T10:15:08.277Z,3464.00
2018-09-08T10:16:08.260Z,3304.00
2018-09-08T10:17:08.240Z,3304.00
2018-09-08T10:18:08.224Z,3388.00
2018-09-08T10:19:08.207Z,3356.00
2018-09-08T10:20:08.191Z,3364.00
2018-09-08T10:21:08.171Z,3412.00
2018-09-08T10:22:08.155Z,3448.00
2018-09-08T10:23:08.172Z,3516.00
2018-09-08T10:24:08.121Z,3560.00
2018-09-08T10:25:08.103Z,3604.00
2018-09-08T10:26:08.085Z,3592.00
2018-09-08T10:27:08.068Z,3624.00
2018-09-08T10:28:08.052Z,3588.00
2018-09-08T10:29:08.034Z,3580.00
2018-09-08T10:30:08.018Z,3512.00
2018-09-08T10:31:08.000Z,3516.00
2018-09-08T10:32:08.512Z,3668.00
2018-09-08T10:33:07.964Z,3728.00
2018-09-08T10:34:07.948Z,3736.00
2018-09-08T10:35:07.931Z,3796.00
2018-09-08T10:36:07.915Z,3860.00
2018-09-08T10:37:07.898Z,3912.00
2018-09-08T10:38:07.879Z,4024.00
2018-09-08T10:39:07.863Z,4104.00
2018-09-08T10:40:07.882Z,4412.00
2018-09-08T10:41:07.829Z,4764.00
2018-09-08T10:42:07.812Z,4464.00
2018-09-08T10:43:13.804Z,4808.00
2018-09-08T10:44:07.778Z,4680.00
2018-09-08T10:45:07.760Z,4060.00
2018-09-08T10:46:07.743Z,4756.00
2018-09-08T10:47:07.726Z,4360.00
2018-09-08T10:48:07.711Z,3968.00
2018-09-08T10:49:07.693Z,4412.00
2018-09-08T10:50:07.676Z,4204.00
2018-09-08T10:51:07.660Z,4152.00
2018-09-08T10:52:07.643Z,4076.00
2018-09-08T10:53:07.625Z,3520.00
2018-09-08T10:54:07.609Z,3328.00
2018-09-08T10:55:07.593Z,3320.00
2018-09-08T10:56:07.575Z,3304.00
2018-09-08T10:57:07.559Z,3336.00
2018-09-08T10:58:07.542Z,3252.00
2018-09-08T10:59:07.524Z,3380.00
2018-09-08T11:00:08.259Z,3516.00
2018-09-08T11:01:07.491Z,3508.00
2018-09-08T11:02:07.788Z,3408.00
2018-09-08T11:03:07.463Z,3468.00
2018-09-08T11:04:07.442Z,3636.00
2018-09-08T11:05:07.423Z,3824.00
2018-09-08T11:06:07.408Z,4440.00
2018-09-08T11:07:07.390Z,4644.00
2018-09-08T11:08:07.378Z,4724.00
2018-09-08T11:09:07.355Z,4616.00
2018-09-08T11:10:07.339Z,4420.00
2018-09-08T11:11:07.323Z,4316.00
2018-09-08T11:12:07.306Z,4468.00
2018-09-08T11:13:07.288Z,4412.00
2018-09-08T11:14:07.272Z,4208.00
2018-09-08T11:15:07.257Z,4124.00
2018-09-08T11:16:07.990Z,4304.00
2018-09-08T11:17:07.220Z,4172.00
2018-09-08T11:18:07.205Z,4240.00
2018-09-08T11:19:07.189Z,4468.00
2018-09-08T11:20:07.175Z,4776.00
2018-09-08T11:21:07.155Z,4972.00
2018-09-08T11:22:07.138Z,5284.00
2018-09-08T11:23:07.122Z,5640.00
2018-09-08T11:24:07.106Z,6124.00
2018-09-08T11:25:07.089Z,6212.00
2018-09-08T11:26:07.072Z,6204.00
2018-09-08T11:27:07.056Z,5672.00
2018-09-08T11:28:07.043Z,5628.00
2018-09-08T11:29:07.023Z,5792.00
2018-09-08T11:30:07.007Z,5808.00
2018-09-08T11:31:06.991Z,5612.00
2018-09-08T11:32:07.726Z,5744.00
2018-09-08T11:33:06.958Z,5512.00
2018-09-08T11:34:06.942Z,5240.00
2018-09-08T11:35:06.928Z,4960.00
2018-09-08T11:36:06.911Z,4896.00
2018-09-08T11:37:06.894Z,4960.00
2018-09-08T11:38:06.996Z,5152.00
2018-09-08T11:39:06.862Z,5176.00
2018-09-08T11:40:06.849Z,5376.00
2018-09-08T11:41:06.830Z,5344.00
2018-09-08T11:42:06.815Z,5184.00
2018-09-08T11:43:06.800Z,5196.00
2018-09-08T11:44:06.783Z,5468.00
2018-09-08T11:45:06.766Z,5508.00
2018-09-08T11:46:06.752Z,5392.00
2018-09-08T11:47:06.735Z,4848.00
2018-09-08T11:48:07.471Z,4352.00
2018-09-08T11:49:06.705Z,4168.00
2018-09-08T11:50:06.689Z,4352.00
2018-09-08T11:51:06.673Z,4336.00
2018-09-08T11:52:06.657Z,4004.00
2018-09-08T11:53:06.644Z,4000.00
2018-09-08T11:54:06.637Z,4044.00
2018-09-08T11:55:06.610Z,4080.00
2018-09-08T11:56:06.595Z,3924.00
2018-09-08T11:57:06.579Z,3840.00
2018-09-08T11:58:06.570Z,3664.00
2018-09-08T11:59:06.546Z,3572.00
2018-09-08T12:00:06.532Z,3616.00
2018-09-08T12:01:06.514Z,3552.00
2018-09-08T12:02:06.534Z,3540.00
2018-09-08T12:03:06.496Z,3468.00
2018-09-08T12:04:06.468Z,3416.00
2018-09-08T12:05:06.452Z,3436.00
2018-09-08T12:06:06.436Z,3576.00
2018-09-08T12:07:06.420Z,3584.00
2018-09-08T12:08:06.442Z,3584.00
2018-09-08T12:09:06.387Z,3616.00
2018-09-08T12:10:06.371Z,3664.00
2018-09-08T12:11:06.357Z,3664.00
2018-09-08T12:12:06.341Z,3724.00
2018-09-08T12:13:06.323Z,3740.00
2018-09-08T12:14:06.308Z,3744.00
2018-09-08T12:15:06.291Z,3780.00
2018-09-08T12:16:06.276Z,3824.00
2018-09-08T12:17:06.259Z,3816.00
2018-09-08T12:18:06.243Z,3816.00
2018-09-08T12:19:06.261Z,3812.00
2018-09-08T12:20:15.220Z,3740.00
2018-09-08T12:21:06.198Z,3724.00
2018-09-08T12:22:06.231Z,3760.00
2018-09-08T12:23:06.164Z,3624.00
2018-09-08T12:24:06.147Z,3724.00
2018-09-08T12:25:06.132Z,3788.00
2018-09-08T12:26:06.866Z,3716.00
2018-09-08T12:27:06.099Z,3576.00
2018-09-08T12:28:06.086Z,3504.00
2018-09-08T12:29:06.068Z,3652.00
2018-09-08T12:30:06.054Z,3628.00
2018-09-08T12:31:06.036Z,3632.00
2018-09-08T12:32:06.021Z,3592.00